Bei Facebook empfehlenBei Twitter postenGoogle plusPinterest

Das Wetter im Erzgebirge am 12.08.2016

Wetter und Klima am 12.08.2016 Holzhau im Erzgebirge (630m ü.NN)
Letzte gemessene Temperatur und Uhrzeit der Messung23:45:00 Uhr14.10 °C
Temperatur (Maximum / Höchstwert) und Uhrzeit der Messung16:00:00 Uhr15.40 °C
Temperatur (Minimum / Tiefstwert) und Uhrzeit der Messung02:45:008.20 °C
Errechneter Absolutwert der Temperaturschwankungen zwischen Tmin und Tmax des Tages7.20 K
Errechnete Tagesmitteltemperatur12.02292 °C
Gesamt - Niederschlag des Tages (in flüssiger Form)3.11 Liter / m²
Luftdruck (Maximum / Höchstwert) und Zeitpunkt der Messung23:00:00 Uhr1020.60 hPa
Luftdruck (Minimum / Tiefstwert) und Zeitpunkt der Messung05:30:00 Uhr1017.00 hPa
Errechneter Absolutwert der Luftdruckschwankungen des Tages3.60 hPa
Höchste gemessene Windgeschwindigkeit und Uhrzeit der Messung23:45:00 Uhr0.00 km/h
Errechnete Windhäufigkeit in Relation zu den Messwerten des Tages0.00000 %
Niedrigste Windkühle (Windchill) und Zeitpunkt der Messung02:45:00 Uhr8.20 °C
Taupunkt (Maximum / Höchstwert) und Uhrzeit der Messung15:45:00 Uhr13.30 °C
Taupunkt (Minimum / Tiefstwert) und Uhrzeit der Messung02:30:006.00 °C
Anzahl der automatisch eingelesenen Messwerte 96

Detaillierte Wetter- und Klima- Messwerte für den 12.08.2016 in Holzhau im Erzgebirge (630m ü.NN)
ZeitTemperaturLuftdruckRel. LuftfeuchteWindWindrichtungWindchillTaupunktNiederschlag l/m²
23:45:0014.10 °C1020.50 hPa94.00 %13.10 °C3.11
23:30:0014.00 °C1020.50 hPa94.00 %13.10 °C3.11
23:15:0013.90 °C1020.50 hPa94.00 %13.00 °C3.11
23:00:0013.90 °C1020.60 hPa94.00 %13.00 °C3.11
22:45:0013.90 °C1020.60 hPa94.00 %13.00 °C2.59
22:30:0013.80 °C1020.40 hPa93.00 %12.70 °C2.59
22:15:0013.80 °C1020.50 hPa93.00 %12.70 °C2.07
22:00:0013.80 °C1020.50 hPa93.00 %12.70 °C2.07
21:45:0013.80 °C1020.40 hPa93.00 %12.70 °C1.55
21:30:0013.80 °C1020.40 hPa93.00 %12.70 °C1.04
21:15:0013.80 °C1020.40 hPa93.00 %12.70 °C1.04
21:00:0013.80 °C1020.50 hPa93.00 %12.70 °C0.52
20:45:0013.80 °C1020.30 hPa93.00 %12.70 °C0.52
20:30:0013.80 °C1020.20 hPa93.00 %12.70 °C0.52
20:15:0013.80 °C1020.30 hPa93.00 %12.70 °C0.52
20:00:0013.80 °C1020.30 hPa93.00 %12.70 °C0.52
19:45:0013.80 °C1020.10 hPa93.00 %12.70 °C0.52
19:30:0013.70 °C1020.30 hPa93.00 %12.60 °C0.52
19:15:0013.80 °C1020.20 hPa92.00 %12.50 °C0.52
19:00:0013.60 °C1020.10 hPa92.00 %12.30 °C0.52
18:45:0013.70 °C1020.00 hPa92.00 %12.40 °C0.52
18:30:0013.80 °C1020.10 hPa91.00 %12.40 °C0.52
18:15:0013.80 °C1020.10 hPa91.00 %12.40 °C0.52
18:00:0013.80 °C1020.20 hPa91.00 %12.40 °C 
17:45:0013.80 °C1020.20 hPa90.00 %12.20 °C 
17:30:0013.80 °C1020.20 hPa90.00 %12.20 °C 
17:15:0013.90 °C1020.20 hPa89.00 %12.10 °C 
17:00:0014.30 °C1020.10 hPa87.00 %12.20 °C 
16:45:0014.90 °C1020.30 hPa87.00 %12.80 °C 
16:30:0014.90 °C1020.20 hPa87.00 %12.80 °C 
16:15:0015.10 °C1020.20 hPa87.00 %13.00 °C 
16:00:0015.40 °C1020.10 hPa87.00 %13.20 °C 
15:45:0015.30 °C1020.10 hPa88.00 %13.30 °C 
15:30:0014.90 °C1019.80 hPa88.00 %12.90 °C 
15:15:0014.90 °C1019.80 hPa88.00 %12.90 °C 
15:00:0014.90 °C1019.70 hPa89.00 %13.10 °C 
14:45:0014.10 °C1019.60 hPa89.00 %12.30 °C 
14:30:0013.70 °C1019.70 hPa88.00 %11.80 °C 
14:15:0013.80 °C1019.60 hPa88.00 %11.80 °C 
14:00:0013.90 °C1019.60 hPa88.00 %11.90 °C 
13:45:0013.90 °C1019.50 hPa89.00 %12.10 °C 
13:30:0013.60 °C1019.50 hPa88.00 %11.70 °C 
13:15:0013.30 °C1019.40 hPa88.00 %11.40 °C 
13:00:0013.30 °C1019.40 hPa88.00 %11.40 °C 
12:45:0013.20 °C1019.30 hPa87.00 %11.10 °C 
12:30:0013.40 °C1019.30 hPa87.00 %11.30 °C 
12:15:0013.30 °C1019.40 hPa87.00 %11.20 °C 
12:00:0013.30 °C1019.30 hPa87.00 %11.20 °C 
11:45:0012.60 °C1019.30 hPa87.00 %10.50 °C 
11:30:0012.60 °C1019.40 hPa86.00 %10.30 °C 
11:15:0012.70 °C1019.20 hPa86.00 %10.40 °C 
11:00:0012.60 °C1019.10 hPa84.00 %10.00 °C 
10:45:0012.50 °C1018.80 hPa84.00 %9.90 °C 
10:30:0012.50 °C1018.90 hPa83.00 %9.70 °C 
10:15:0012.90 °C1018.80 hPa82.00 %9.90 °C 
10:00:0013.50 °C1018.60 hPa82.00 %10.50 °C 
09:45:0013.80 °C1018.50 hPa83.00 %11.00 °C 
09:30:0012.90 °C1018.50 hPa84.00 %10.30 °C 
09:15:0012.50 °C1018.40 hPa85.00 %10.00 °C 
09:00:0011.90 °C1018.10 hPa86.00 %9.60 °C 
08:45:0011.60 °C1018.00 hPa86.00 %9.30 °C 
08:30:0011.40 °C1018.10 hPa86.00 %9.10 °C 
08:15:0011.10 °C1018.00 hPa86.00 %8.80 °C 
08:00:0011.00 °C1017.90 hPa87.00 %8.90 °C 
07:45:0010.90 °C1017.80 hPa87.00 %8.80 °C 
07:30:0010.40 °C1017.60 hPa87.00 %8.30 °C 
07:15:0010.10 °C1017.40 hPa88.00 %8.20 °C 
07:00:009.90 °C1017.40 hPa88.00 %8.00 °C 
06:45:009.60 °C1017.40 hPa87.00 %7.50 °C 
06:30:009.50 °C1017.50 hPa87.00 %7.40 °C 
06:15:009.40 °C1017.30 hPa87.00 %7.30 °C 
06:00:009.10 °C1017.30 hPa87.00 %7.10 °C 
05:45:008.90 °C1017.10 hPa87.00 %6.90 °C 
05:30:008.70 °C1017.00 hPa87.00 %6.70 °C 
05:15:008.40 °C1017.30 hPa86.00 %6.20 °C 
05:00:008.40 °C1017.40 hPa86.00 %6.20 °C 
04:45:008.50 °C1017.10 hPa85.00 %6.10 °C 
04:30:008.90 °C1017.20 hPa85.00 %6.50 °C 
04:15:009.20 °C1017.20 hPa85.00 %6.80 °C 
04:00:009.30 °C1017.60 hPa85.00 %6.90 °C 
03:45:009.40 °C1017.70 hPa85.00 %7.00 °C 
03:30:009.30 °C1017.80 hPa86.00 %7.10 °C 
03:15:008.90 °C1017.90 hPa87.00 %6.90 °C 
03:00:008.30 °C1018.00 hPa87.00 %6.30 °C 
02:45:008.20 °C1017.70 hPa87.00 %6.20 °C 
02:30:008.20 °C1017.70 hPa86.00 %6.00 °C 
02:15:008.20 °C1017.80 hPa86.00 %6.00 °C 
02:00:008.30 °C1018.00 hPa86.00 %6.10 °C 
01:45:008.40 °C1017.90 hPa85.00 %6.00 °C 
01:30:008.40 °C1017.90 hPa85.00 %6.00 °C 
01:15:008.40 °C1018.10 hPa85.00 %6.00 °C 
01:00:008.40 °C1018.00 hPa85.00 %6.00 °C 
00:45:008.40 °C1017.90 hPa85.00 %6.00 °C 
00:30:008.50 °C1018.20 hPa84.00 %6.00 °C 
00:15:008.50 °C1018.20 hPa84.00 %6.00 °C 
00:00:008.60 °C1018.40 hPa84.00 %6.10 °C 

Permanenter Link zu dieser Seite: Wetter im Erzgebirge am 12.08.2016
Performance-Info: Die Erstellung der Seite / Statistik(en) / Tabelle(n) erforderte 5 Datenbankserver-Abfrage(n) und dauerte 100 Millisekunden. (Dieser Messwert ist von der Gesamt-Auslastung des Servers abhängig.)
Erzgebirge - Wetter | Erzgebirge - Wetter (Mobilgeräte) | Komplette Klimadatenbank